sensor_id;sensor_type;location;lat;lon;timestamp;temperature;humidity
28023;DHT22;67403;50.104;8.758;2023-01-31T17:22:42;4.90;99.90
28023;DHT22;67403;50.104;8.758;2023-01-31T17:25:14;4.90;99.90
28023;DHT22;67403;50.104;8.758;2023-01-31T17:27:41;5.00;99.90
28023;DHT22;67403;50.104;8.758;2023-01-31T17:30:09;5.10;99.90
28023;DHT22;67403;50.104;8.758;2023-01-31T17:32:36;5.20;99.90
28023;DHT22;67403;50.104;8.758;2023-01-31T17:35:14;5.10;99.90
28023;DHT22;67403;50.104;8.758;2023-01-31T17:37:44;5.10;99.90
28023;DHT22;67403;50.104;8.758;2023-01-31T17:40:11;5.10;99.90
28023;DHT22;67403;50.104;8.758;2023-01-31T17:42:38;5.10;99.90
28023;DHT22;67403;50.104;8.758;2023-01-31T17:45:08;5.00;99.90
28023;DHT22;67403;50.104;8.758;2023-01-31T17:47:37;5.00;99.90
28023;DHT22;67403;50.104;8.758;2023-01-31T17:50:05;5.00;99.90
28023;DHT22;67403;50.104;8.758;2023-01-31T17:52:32;5.00;99.90
28023;DHT22;67403;50.104;8.758;2023-01-31T17:55:00;5.00;99.90
28023;DHT22;67403;50.104;8.758;2023-01-31T17:57:27;5.00;99.90
28023;DHT22;67403;50.104;8.758;2023-01-31T17:59:54;5.00;99.90
28023;DHT22;67403;50.104;8.758;2023-01-31T18:02:21;5.00;99.90
28023;DHT22;67403;50.104;8.758;2023-01-31T18:04:48;5.10;99.90
28023;DHT22;67403;50.104;8.758;2023-01-31T18:07:15;5.00;99.90
28023;DHT22;67403;50.104;8.758;2023-01-31T18:09:42;5.10;99.90
28023;DHT22;67403;50.104;8.758;2023-01-31T18:12:11;5.10;99.90
28023;DHT22;67403;50.104;8.758;2023-01-31T18:14:38;5.10;99.90
28023;DHT22;67403;50.104;8.758;2023-01-31T18:17:05;5.10;99.90
28023;DHT22;67403;50.104;8.758;2023-01-31T18:19:32;5.00;99.90
28023;DHT22;67403;50.104;8.758;2023-01-31T18:21:58;5.00;99.90
28023;DHT22;67403;50.104;8.758;2023-01-31T18:24:25;5.10;99.90
28023;DHT22;67403;50.104;8.758;2023-01-31T18:26:52;5.10;99.90
28023;DHT22;67403;50.104;8.758;2023-01-31T18:29:22;5.10;99.90
28023;DHT22;67403;50.104;8.758;2023-01-31T18:31:53;5.10;99.90
28023;DHT22;67403;50.104;8.758;2023-01-31T18:34:22;5.10;99.90
28023;DHT22;67403;50.104;8.758;2023-01-31T18:36:49;5.20;99.90
28023;DHT22;67403;50.104;8.758;2023-01-31T18:39:16;5.20;99.90
28023;DHT22;67403;50.104;8.758;2023-01-31T18:41:43;5.20;99.90
28023;DHT22;67403;50.104;8.758;2023-01-31T18:44:10;5.20;99.90
28023;DHT22;67403;50.104;8.758;2023-01-31T18:46:38;5.10;99.90
28023;DHT22;67403;50.104;8.758;2023-01-31T18:49:05;5.10;99.90
28023;DHT22;67403;50.104;8.758;2023-01-31T18:51:32;5.00;99.90
28023;DHT22;67403;50.104;8.758;2023-01-31T18:53:59;5.10;99.90
28023;DHT22;67403;50.104;8.758;2023-01-31T18:56:25;5.10;99.90
28023;DHT22;67403;50.104;8.758;2023-01-31T18:58:52;5.20;99.90
28023;DHT22;67403;50.104;8.758;2023-01-31T19:01:21;5.20;99.90
28023;DHT22;67403;50.104;8.758;2023-01-31T19:03:51;5.20;99.90
28023;DHT22;67403;50.104;8.758;2023-01-31T19:06:20;5.20;99.90
28023;DHT22;67403;50.104;8.758;2023-01-31T19:08:47;5.20;99.90
28023;DHT22;67403;50.104;8.758;2023-01-31T19:11:16;5.20;99.90
28023;DHT22;67403;50.104;8.758;2023-01-31T19:13:44;5.20;99.90
28023;DHT22;67403;50.104;8.758;2023-01-31T19:16:13;5.20;99.90
28023;DHT22;67403;50.104;8.758;2023-01-31T19:18:40;5.20;99.90
28023;DHT22;67403;50.104;8.758;2023-01-31T19:21:15;5.20;99.90
28023;DHT22;67403;50.104;8.758;2023-01-31T19:23:43;5.20;99.90
28023;DHT22;67403;50.104;8.758;2023-01-31T19:26:11;5.20;99.90
28023;DHT22;67403;50.104;8.758;2023-01-31T19:28:38;5.20;99.90
28023;DHT22;67403;50.104;8.758;2023-01-31T19:31:06;5.20;99.90
28023;DHT22;67403;50.104;8.758;2023-01-31T19:33:34;5.20;99.90
28023;DHT22;67403;50.104;8.758;2023-01-31T19:36:08;5.20;99.90
28023;DHT22;67403;50.104;8.758;2023-01-31T19:38:36;5.20;99.90
28023;DHT22;67403;50.104;8.758;2023-01-31T19:41:05;5.20;99.90
28023;DHT22;67403;50.104;8.758;2023-01-31T19:43:32;5.20;99.90
28023;DHT22;67403;50.104;8.758;2023-01-31T19:45:59;5.20;99.90
28023;DHT22;67403;50.104;8.758;2023-01-31T19:48:26;5.30;99.90
28023;DHT22;67403;50.104;8.758;2023-01-31T19:50:53;5.30;99.90
28023;DHT22;67403;50.104;8.758;2023-01-31T19:53:20;5.20;99.90
28023;DHT22;67403;50.104;8.758;2023-01-31T19:55:49;5.30;99.90
28023;DHT22;67403;50.104;8.758;2023-01-31T19:58:16;5.30;99.90
28023;DHT22;67403;50.104;8.758;2023-01-31T20:00:43;5.30;99.90
28023;DHT22;67403;50.104;8.758;2023-01-31T20:03:10;5.20;99.90
28023;DHT22;67403;50.104;8.758;2023-01-31T20:05:37;5.20;99.90
28023;DHT22;67403;50.104;8.758;2023-01-31T20:08:05;5.20;99.90
28023;DHT22;67403;50.104;8.758;2023-01-31T20:10:33;5.20;99.90
28023;DHT22;67403;50.104;8.758;2023-01-31T20:13:03;5.30;99.90
28023;DHT22;67403;50.104;8.758;2023-01-31T20:15:32;5.20;99.90
28023;DHT22;67403;50.104;8.758;2023-01-31T20:17:59;5.30;99.90
28023;DHT22;67403;50.104;8.758;2023-01-31T20:20:26;5.30;99.90
28023;DHT22;67403;50.104;8.758;2023-01-31T20:22:53;5.30;99.90
28023;DHT22;67403;50.104;8.758;2023-01-31T20:25:20;5.30;99.90
28023;DHT22;67403;50.104;8.758;2023-01-31T20:27:47;5.30;99.90
28023;DHT22;67403;50.104;8.758;2023-01-31T20:30:15;5.30;99.90
28023;DHT22;67403;50.104;8.758;2023-01-31T20:32:44;5.40;99.90
28023;DHT22;67403;50.104;8.758;2023-01-31T20:35:11;5.40;99.90
28023;DHT22;67403;50.104;8.758;2023-01-31T20:37:38;5.40;99.90
28023;DHT22;67403;50.104;8.758;2023-01-31T20:40:06;5.40;99.90
28023;DHT22;67403;50.104;8.758;2023-01-31T20:42:33;5.50;99.90
28023;DHT22;67403;50.104;8.758;2023-01-31T20:45:01;5.40;99.90
28023;DHT22;67403;50.104;8.758;2023-01-31T20:47:29;5.40;99.90
28023;DHT22;67403;50.104;8.758;2023-01-31T20:49:56;5.40;99.90
28023;DHT22;67403;50.104;8.758;2023-01-31T20:52:23;5.50;99.90
28023;DHT22;67403;50.104;8.758;2023-01-31T20:54:50;5.50;99.90
28023;DHT22;67403;50.104;8.758;2023-01-31T20:57:17;5.40;99.90
28023;DHT22;67403;50.104;8.758;2023-01-31T20:59:44;5.50;99.90
28023;DHT22;67403;50.104;8.758;2023-01-31T21:02:11;5.60;99.90
28023;DHT22;67403;50.104;8.758;2023-01-31T21:04:39;5.50;99.90
28023;DHT22;67403;50.104;8.758;2023-01-31T21:07:06;5.50;99.90
28023;DHT22;67403;50.104;8.758;2023-01-31T21:09:33;5.50;99.90
28023;DHT22;67403;50.104;8.758;2023-01-31T21:12:00;5.40;99.90
28023;DHT22;67403;50.104;8.758;2023-01-31T21:14:27;5.40;99.90
28023;DHT22;67403;50.104;8.758;2023-01-31T21:16:54;5.40;99.90
28023;DHT22;67403;50.104;8.758;2023-01-31T21:19:21;5.40;99.90
28023;DHT22;67403;50.104;8.758;2023-01-31T21:21:49;5.40;99.90
28023;DHT22;67403;50.104;8.758;2023-01-31T21:24:16;5.40;99.90
28023;DHT22;67403;50.104;8.758;2023-01-31T21:26:43;5.40;99.90
28023;DHT22;67403;50.104;8.758;2023-01-31T21:29:10;5.30;99.90
28023;DHT22;67403;50.104;8.758;2023-01-31T21:31:37;5.40;99.90
28023;DHT22;67403;50.104;8.758;2023-01-31T21:34:04;5.40;99.90
28023;DHT22;67403;50.104;8.758;2023-01-31T21:36:32;5.40;99.90
28023;DHT22;67403;50.104;8.758;2023-01-31T21:39:02;5.40;99.90
28023;DHT22;67403;50.104;8.758;2023-01-31T21:41:29;5.40;99.90
28023;DHT22;67403;50.104;8.758;2023-01-31T21:44:13;5.40;99.90
28023;DHT22;67403;50.104;8.758;2023-01-31T21:46:40;5.40;99.90
28023;DHT22;67403;50.104;8.758;2023-01-31T21:49:07;5.30;99.90
28023;DHT22;67403;50.104;8.758;2023-01-31T21:51:34;5.30;99.90
28023;DHT22;67403;50.104;8.758;2023-01-31T21:54:02;5.30;99.90
28023;DHT22;67403;50.104;8.758;2023-01-31T21:56:29;5.40;99.90
28023;DHT22;67403;50.104;8.758;2023-01-31T21:58:57;5.40;99.90
28023;DHT22;67403;50.104;8.758;2023-01-31T22:01:26;5.30;99.90
28023;DHT22;67403;50.104;8.758;2023-01-31T22:03:53;5.30;99.90
28023;DHT22;67403;50.104;8.758;2023-01-31T22:06:22;5.30;99.90
28023;DHT22;67403;50.104;8.758;2023-01-31T22:08:50;5.30;99.90
28023;DHT22;67403;50.104;8.758;2023-01-31T22:11:19;5.30;99.90
28023;DHT22;67403;50.104;8.758;2023-01-31T22:13:47;5.20;99.90
28023;DHT22;67403;50.104;8.758;2023-01-31T22:16:16;5.30;99.90
28023;DHT22;67403;50.104;8.758;2023-01-31T22:18:44;5.20;99.90
28023;DHT22;67403;50.104;8.758;2023-01-31T22:21:12;5.20;99.90
28023;DHT22;67403;50.104;8.758;2023-01-31T22:23:44;5.20;99.90
28023;DHT22;67403;50.104;8.758;2023-01-31T22:26:12;5.20;99.90
28023;DHT22;67403;50.104;8.758;2023-01-31T22:28:42;5.20;99.90
28023;DHT22;67403;50.104;8.758;2023-01-31T22:31:09;5.20;99.90
28023;DHT22;67403;50.104;8.758;2023-01-31T22:33:37;5.20;99.90
28023;DHT22;67403;50.104;8.758;2023-01-31T22:36:06;5.20;99.90
28023;DHT22;67403;50.104;8.758;2023-01-31T22:38:33;5.10;99.90
28023;DHT22;67403;50.104;8.758;2023-01-31T22:41:01;5.10;99.90
28023;DHT22;67403;50.104;8.758;2023-01-31T22:43:29;5.10;99.90
28023;DHT22;67403;50.104;8.758;2023-01-31T22:45:58;5.10;99.90
28023;DHT22;67403;50.104;8.758;2023-01-31T22:48:26;5.10;99.90
28023;DHT22;67403;50.104;8.758;2023-01-31T22:50:53;5.10;99.90
28023;DHT22;67403;50.104;8.758;2023-01-31T22:53:21;5.10;99.90
28023;DHT22;67403;50.104;8.758;2023-01-31T22:55:48;5.20;99.90
28023;DHT22;67403;50.104;8.758;2023-01-31T22:58:23;5.20;99.90
28023;DHT22;67403;50.104;8.758;2023-01-31T23:00:50;5.20;99.90
28023;DHT22;67403;50.104;8.758;2023-01-31T23:03:18;5.20;99.90
28023;DHT22;67403;50.104;8.758;2023-01-31T23:05:45;5.20;99.90
28023;DHT22;67403;50.104;8.758;2023-01-31T23:08:13;5.20;99.90
28023;DHT22;67403;50.104;8.758;2023-01-31T23:10:41;5.10;99.90
28023;DHT22;67403;50.104;8.758;2023-01-31T23:13:09;5.10;99.90
28023;DHT22;67403;50.104;8.758;2023-01-31T23:15:37;5.00;99.90
28023;DHT22;67403;50.104;8.758;2023-01-31T23:18:04;5.00;99.90
28023;DHT22;67403;50.104;8.758;2023-01-31T23:20:33;5.10;99.90
28023;DHT22;67403;50.104;8.758;2023-01-31T23:23:00;5.00;99.90
28023;DHT22;67403;50.104;8.758;2023-01-31T23:25:27;5.00;99.90
28023;DHT22;67403;50.104;8.758;2023-01-31T23:27:56;5.00;99.90
28023;DHT22;67403;50.104;8.758;2023-01-31T23:30:23;5.00;99.90
28023;DHT22;67403;50.104;8.758;2023-01-31T23:32:51;4.90;99.90
28023;DHT22;67403;50.104;8.758;2023-01-31T23:35:18;4.90;99.90
28023;DHT22;67403;50.104;8.758;2023-01-31T23:37:46;5.00;99.90
28023;DHT22;67403;50.104;8.758;2023-01-31T23:40:13;5.00;99.90
28023;DHT22;67403;50.104;8.758;2023-01-31T23:42:40;5.10;99.90
28023;DHT22;67403;50.104;8.758;2023-01-31T23:45:08;5.00;99.90
28023;DHT22;67403;50.104;8.758;2023-01-31T23:47:35;5.10;99.90
28023;DHT22;67403;50.104;8.758;2023-01-31T23:50:05;5.10;99.90
28023;DHT22;67403;50.104;8.758;2023-01-31T23:52:31;5.10;99.90
28023;DHT22;67403;50.104;8.758;2023-01-31T23:55:00;5.20;99.90
28023;DHT22;67403;50.104;8.758;2023-01-31T23:57:27;5.10;99.90
28023;DHT22;67403;50.104;8.758;2023-01-31T23:59:53;5.20;99.90
